Andover, NJ (07821)

12:06 AM EDT on September 20, 2014 (GMT -0400)
Stanhope,NJ | Change Station
CLOSE
Current Station
Personal Weather Station
Location: Stanhope, NJ
Elevation: 970 ft
Nearby Weather Stations

Elev 970 ft 40.91 °N, 74.70 °W | Updated 1 minute ago

Partly Cloudy
Partly Cloudy
52.0 °F
Feels Like 52.0 °F
N
0.0
Wind Variable Wind from SSW
Gusts 2.0 mph

Today
High -- | Low -- °F
--% Chance of Precip.
Yesterday
High -- | Low -- °F
Precip. -- in
6:44 AM 6:59 PM
Waning Crescent, 15% visible
Pressure 30.35 in
Visibility 7.0 miles
Clouds Clear
Dew Point 50 °F
Humidity 91%
Rainfall 0.00 in
Snow Depth Not available.
UV 0 out of 12
Pollen 3.10 out of 12
Air Quality Not available.
Flu Activity Not available.
METAR KFWN 200353Z AUTO 00000KT 7SM CLR 10/08 A3035 RMK AO2 SLP277 T01000083

More Conditions Fewer Conditions

Pressure 30.35 in
Visibility 7.0 miles
Clouds Clear
Dew Point 50 °F
Humidity 91%
Rainfall 0.00 in
Snow Depth Not available.
UV 0 out of 12
Pollen 3.10 out of 12
Air Quality Not available.
Flu Activity Not available.
METAR KFWN 200353Z AUTO 00000KT 7SM CLR 10/08 A3035 RMK AO2 SLP277 T01000083

More Conditions Fewer Conditions

10-Day Weather Forecast

Almanac

Astronomy

Sep. 20, 2014 Rise Set
Actual Time 6:44 AM EDT 6:59 PM EDT
Civil Twilight 6:16 AM EDT 7:26 PM EDT
Nautical Twilight 5:44 AM EDT 7:59 PM EDT
Astronomical Twilight 5:11 AM EDT 8:31 PM EDT
Moon 3:20 AM EDT 5:02 PM EDT
Length of Visible Light 13h 10m
Length of Day
12h 15m
Tomorrow will be 2m 41s shorter.
Waning Crescent, 15% of the Moon is Illuminated
Today
Waning Crescent
Sep 24
New
Oct 1
First Quarter
Oct 8
Full
Oct 15
Last Quarter

Yesterday's Extremes

State Highs State Lows

Community

WunderPhotos

Upload Photos

1,754,777 photos uploaded!

WunderBlogs® & News

Nearby

Snow Depth

Station Depth Elevation
No new snow has been reported.

Earthquake Activity

City Distance Mag. Time & Date
No recent earthquake activity has been reported nearby.
Minimum magnitude displayed is 2.5.

Coastal Water Temperatures

Place Temperature
No Stations Reporting

Nearby Weather Stations